Terminal Aerodrome Forecast
Issued by NWS

Home | Current Version | Previous Version | Graphics & Text | Print | Product List | Glossary On
Versions: 1 2 3 4 5 6 7 8 9 10 11 12 13 14 15 16 17 18
000
FTUS43 KGRB 241503 AAB
TAFAUW
TAF AMD
KAUW 241503Z 2415/2512 21008KT 6SM BR SCT010 OVC015
      TEMPO 2415/2416 2SM -SHRA BKN010
     FM241600 21010G15KT P6SM OVC007
     FM241800 24010G16KT P6SM BKN018
     FM242000 26009G15KT P6SM BKN050
     FM242200 26008G14KT P6SM BKN080
     FM242300 28004KT P6SM SCT200=

USA.gov is the U.S. government's official web portal to all federal, state and local government web resources and services.